createdAt,value
2018-06-09T00:00:08.916Z,20.84
2018-06-09T00:01:09.100Z,20.81
2018-06-09T00:02:09.280Z,20.75
2018-06-09T00:03:09.470Z,20.66
2018-06-09T00:04:09.659Z,20.70
2018-06-09T00:05:09.825Z,20.60
2018-06-09T00:06:10.017Z,20.47
2018-06-09T00:07:10.198Z,20.52
2018-06-09T00:08:10.382Z,20.48
2018-06-09T00:09:10.573Z,20.47
2018-06-09T00:10:10.756Z,20.55
2018-06-09T00:11:10.929Z,20.36
2018-06-09T00:12:11.117Z,20.40
2018-06-09T00:13:11.295Z,20.31
2018-06-09T00:14:11.496Z,20.39
2018-06-09T00:15:11.674Z,20.18
2018-06-09T00:16:11.857Z,20.14
2018-06-09T00:17:12.042Z,20.18
2018-06-09T00:18:12.223Z,20.13
2018-06-09T00:19:12.404Z,20.24
2018-06-09T00:20:12.592Z,20.21
2018-06-09T00:21:12.776Z,20.09
2018-06-09T00:22:12.952Z,20.21
2018-06-09T00:23:13.137Z,20.21
2018-06-09T00:24:13.327Z,20.22
2018-06-09T00:25:13.505Z,20.22
2018-06-09T00:26:13.690Z,20.26
2018-06-09T00:27:13.872Z,20.34
2018-06-09T00:28:14.059Z,20.36
2018-06-09T00:29:14.228Z,20.34
2018-06-09T00:30:14.416Z,20.36
2018-06-09T00:31:14.599Z,20.37
2018-06-09T00:32:14.783Z,20.34
2018-06-09T00:33:14.983Z,20.34
2018-06-09T00:34:15.158Z,20.34
2018-06-09T00:35:15.336Z,20.28
2018-06-09T00:36:15.510Z,20.24
2018-06-09T00:37:15.693Z,20.19
2018-06-09T00:38:15.880Z,20.16
2018-06-09T00:39:16.056Z,20.10
2018-06-09T00:40:16.239Z,20.25
2018-06-09T00:41:16.421Z,20.28
2018-06-09T00:42:16.607Z,20.16
2018-06-09T00:43:16.801Z,20.10
2018-06-09T00:45:17.158Z,20.16
2018-06-09T00:46:17.346Z,20.13
2018-06-09T00:47:17.527Z,20.16
2018-06-09T00:48:17.709Z,20.18
2018-06-09T00:49:17.903Z,20.11
2018-06-09T00:50:18.088Z,20.09
2018-06-09T00:51:18.263Z,20.13
2018-06-09T00:52:18.443Z,20.04
2018-06-09T00:53:18.630Z,20.07
2018-06-09T00:54:18.808Z,20.03
2018-06-09T00:55:18.992Z,19.95
2018-06-09T00:56:19.179Z,19.89
2018-06-09T00:57:19.360Z,19.92
2018-06-09T00:58:19.551Z,19.85
2018-06-09T00:59:19.733Z,19.84
2018-06-09T01:00:19.917Z,19.85
2018-06-09T01:01:20.097Z,19.67
2018-06-09T01:02:20.279Z,19.79
2018-06-09T01:03:20.471Z,19.73
2018-06-09T01:04:20.650Z,19.74
2018-06-09T01:05:20.836Z,19.59
2018-06-09T01:06:21.020Z,19.69
2018-06-09T01:07:21.199Z,19.55
2018-06-09T01:08:21.382Z,19.49
2018-06-09T01:09:21.561Z,19.45
2018-06-09T01:10:21.753Z,19.45
2018-06-09T01:11:21.931Z,19.49
2018-06-09T01:12:22.111Z,19.52
2018-06-09T01:13:22.296Z,19.58
2018-06-09T01:14:22.474Z,19.55
2018-06-09T01:15:22.681Z,19.59
2018-06-09T01:16:22.843Z,19.58
2018-06-09T01:17:23.029Z,19.67
2018-06-09T01:18:23.223Z,19.74
2018-06-09T01:19:23.388Z,19.69
2018-06-09T01:20:23.571Z,19.69
2018-06-09T01:21:23.758Z,19.62
2018-06-09T01:22:23.939Z,19.64
2018-06-09T01:23:24.133Z,19.63
2018-06-09T01:24:24.307Z,19.62
2018-06-09T01:25:24.492Z,19.52
2018-06-09T01:26:24.672Z,19.56
2018-06-09T01:27:24.851Z,19.56
2018-06-09T01:28:25.032Z,19.54
2018-06-09T01:29:25.219Z,19.63
2018-06-09T01:30:25.415Z,19.48
2018-06-09T01:31:25.589Z,19.49
2018-06-09T01:32:25.783Z,19.49
2018-06-09T01:33:25.955Z,19.49
2018-06-09T01:34:26.143Z,19.51
2018-06-09T01:35:26.330Z,19.55
2018-06-09T01:36:26.509Z,19.45
2018-06-09T01:37:26.683Z,19.48
2018-06-09T01:38:26.867Z,19.44
2018-06-09T01:39:27.289Z,19.49
2018-06-09T01:40:27.234Z,19.54
2018-06-09T01:41:27.423Z,19.52
2018-06-09T01:42:27.604Z,19.30
2018-06-09T01:43:27.792Z,19.34
2018-06-09T01:44:27.971Z,19.39
2018-06-09T01:45:28.153Z,19.47
2018-06-09T01:46:28.574Z,19.41
2018-06-09T01:47:28.533Z,19.40
2018-06-09T01:48:28.697Z,19.54
2018-06-09T01:49:28.885Z,19.51
2018-06-09T01:50:29.066Z,19.40
2018-06-09T01:51:29.250Z,19.34
2018-06-09T01:52:29.435Z,19.40
2018-06-09T01:53:29.615Z,19.45
2018-06-09T01:54:29.807Z,19.36
2018-06-09T01:55:29.985Z,19.39
2018-06-09T01:56:30.168Z,19.34
2018-06-09T01:57:30.343Z,19.29
2018-06-09T01:58:30.536Z,19.34
2018-06-09T01:59:30.720Z,19.40
2018-06-09T02:00:30.907Z,19.31
2018-06-09T02:01:31.089Z,19.29
2018-06-09T02:02:31.264Z,19.33
2018-06-09T02:03:31.444Z,19.40
2018-06-09T02:04:31.626Z,19.40
2018-06-09T02:05:31.797Z,19.37
2018-06-09T02:06:31.982Z,19.36
2018-06-09T02:07:32.156Z,19.40
2018-06-09T02:08:32.360Z,19.37
2018-06-09T02:09:32.532Z,19.39
2018-06-09T02:10:32.712Z,19.30
2018-06-09T02:11:32.892Z,19.27
2018-06-09T02:12:33.067Z,19.21
2018-06-09T02:14:33.430Z,19.00
2018-06-09T02:15:33.596Z,18.84
2018-06-09T02:16:33.785Z,18.77
2018-06-09T02:17:33.972Z,18.81
2018-06-09T02:18:34.162Z,18.75
2018-06-09T02:19:34.334Z,18.78
2018-06-09T02:20:34.864Z,18.89
2018-06-09T02:21:34.697Z,18.92
2018-06-09T02:22:34.880Z,18.96
2018-06-09T02:23:35.085Z,18.93
2018-06-09T02:24:35.246Z,18.98
2018-06-09T02:25:35.444Z,18.98
2018-06-09T02:26:35.613Z,18.93
2018-06-09T02:27:35.793Z,18.96
2018-06-09T02:28:35.972Z,18.93
2018-06-09T02:29:36.155Z,19.02
2018-06-09T02:30:36.329Z,19.08
2018-06-09T02:31:36.505Z,18.99
2018-06-09T02:32:36.707Z,19.09
2018-06-09T02:33:36.884Z,19.12
2018-06-09T02:34:37.063Z,18.86
2018-06-09T02:35:37.244Z,18.90
2018-06-09T02:36:37.431Z,18.95
2018-06-09T02:37:37.618Z,18.84
2018-06-09T02:38:37.797Z,18.81
2018-06-09T02:39:37.985Z,18.88
2018-06-09T02:40:38.159Z,18.66
2018-06-09T02:41:38.343Z,18.73
2018-06-09T02:42:38.523Z,18.65
2018-06-09T02:43:38.706Z,18.68
2018-06-09T02:44:38.893Z,18.65
2018-06-09T02:45:39.069Z,18.71
2018-06-09T02:46:39.258Z,18.71
2018-06-09T02:47:39.434Z,18.77
2018-06-09T02:48:39.616Z,18.80
2018-06-09T02:49:39.795Z,18.66
2018-06-09T02:50:39.982Z,18.70
2018-06-09T02:51:40.157Z,18.74
2018-06-09T02:52:40.341Z,18.75
2018-06-09T02:53:40.529Z,18.70
2018-06-09T02:54:40.750Z,18.74
2018-06-09T02:55:40.898Z,18.73
2018-06-09T02:56:41.085Z,18.75
2018-06-09T02:57:41.260Z,18.88
2018-06-09T02:58:41.449Z,18.73
2018-06-09T02:59:41.622Z,18.74
2018-06-09T03:00:41.808Z,18.70
2018-06-09T03:01:41.987Z,18.70
2018-06-09T03:02:42.175Z,18.70
2018-06-09T03:03:42.353Z,18.70
2018-06-09T03:04:42.551Z,18.80
2018-06-09T03:05:42.724Z,18.71
2018-06-09T03:06:42.898Z,18.73
2018-06-09T03:07:43.085Z,18.74
2018-06-09T03:08:43.262Z,18.74
2018-06-09T03:09:43.445Z,18.74
2018-06-09T03:10:43.630Z,18.74
2018-06-09T03:11:43.811Z,18.74
2018-06-09T03:12:43.998Z,18.84
2018-06-09T03:13:44.185Z,18.89
2018-06-09T03:14:44.366Z,18.73
2018-06-09T03:15:44.541Z,18.58
2018-06-09T03:16:44.729Z,18.77
2018-06-09T03:17:44.905Z,18.65
2018-06-09T03:18:45.326Z,18.56
2018-06-09T03:19:45.273Z,18.58
2018-06-09T03:20:45.459Z,18.53
2018-06-09T03:21:45.650Z,18.60
2018-06-09T03:22:45.812Z,18.55
2018-06-09T03:23:45.996Z,18.66
2018-06-09T03:24:46.182Z,18.66
2018-06-09T03:25:46.366Z,18.63
2018-06-09T03:26:46.542Z,18.60
2018-06-09T03:27:46.726Z,18.63
2018-06-09T03:28:46.918Z,18.63
2018-06-09T03:29:47.089Z,18.65
2018-06-09T03:30:47.267Z,18.63
2018-06-09T03:31:47.447Z,18.60
2018-06-09T03:32:47.636Z,18.71
2018-06-09T03:33:47.815Z,18.77
2018-06-09T03:34:48.024Z,18.80
2018-06-09T03:35:48.202Z,18.86
2018-06-09T03:36:48.384Z,18.81
2018-06-09T03:37:48.574Z,18.83
2018-06-09T03:38:48.748Z,18.86
2018-06-09T03:39:48.934Z,18.83
2018-06-09T03:40:49.108Z,18.92
2018-06-09T03:41:49.305Z,19.02
2018-06-09T03:42:49.505Z,19.04
2018-06-09T03:43:49.685Z,19.11
2018-06-09T03:44:49.854Z,19.18
2018-06-09T03:45:50.041Z,19.12
2018-06-09T03:46:50.222Z,19.12
2018-06-09T03:47:50.400Z,19.02
2018-06-09T03:48:50.632Z,19.09
2018-06-09T03:49:50.758Z,19.16
2018-06-09T03:50:50.954Z,19.27
2018-06-09T03:51:51.139Z,19.33
2018-06-09T03:53:51.500Z,19.15
2018-06-09T03:54:51.683Z,19.22
2018-06-09T03:55:51.870Z,19.12
2018-06-09T03:56:52.056Z,19.14
2018-06-09T03:57:52.236Z,19.26
2018-06-09T03:58:52.425Z,19.26
2018-06-09T03:59:52.609Z,19.30
2018-06-09T04:00:52.793Z,19.29
2018-06-09T04:01:52.971Z,19.30
2018-06-09T04:02:53.157Z,19.31
2018-06-09T04:03:53.333Z,19.31
2018-06-09T04:04:53.523Z,19.31
2018-06-09T04:05:53.701Z,19.39
2018-06-09T04:06:53.887Z,19.39
2018-06-09T04:07:54.074Z,19.45
2018-06-09T04:08:54.271Z,19.34
2018-06-09T04:09:54.451Z,19.39
2018-06-09T04:10:54.627Z,19.37
2018-06-09T04:11:54.816Z,19.55
2018-06-09T04:12:54.994Z,19.69
2018-06-09T04:13:55.172Z,19.71
2018-06-09T04:14:55.352Z,19.66
2018-06-09T04:15:55.538Z,19.64
2018-06-09T04:16:55.721Z,19.48
2018-06-09T04:17:55.903Z,19.70
2018-06-09T04:18:56.088Z,19.71
2018-06-09T04:19:56.270Z,19.67
2018-06-09T04:20:56.449Z,19.58
2018-06-09T04:21:56.639Z,19.18
2018-06-09T04:22:56.822Z,18.99
2018-06-09T04:23:57.243Z,18.93
2018-06-09T04:24:57.184Z,18.98
2018-06-09T04:25:57.368Z,19.00
2018-06-09T04:26:57.555Z,19.09
2018-06-09T04:27:57.736Z,19.11
2018-06-09T04:28:57.933Z,19.16
2018-06-09T04:29:58.109Z,19.21
2018-06-09T04:30:58.293Z,19.33
2018-06-09T04:31:58.476Z,19.41
2018-06-09T04:32:58.670Z,19.51
2018-06-09T04:33:58.912Z,19.62
2018-06-09T04:34:59.024Z,19.66
2018-06-09T04:35:59.203Z,19.96
2018-06-09T04:36:59.384Z,20.25
2018-06-09T04:37:59.564Z,20.66
2018-06-09T04:38:59.751Z,20.93
2018-06-09T04:39:59.971Z,21.05
2018-06-09T04:41:00.120Z,21.42
2018-06-09T04:42:00.299Z,21.48
2018-06-09T04:43:00.492Z,21.54
2018-06-09T04:44:00.675Z,21.48
2018-06-09T04:45:00.855Z,21.70
2018-06-09T04:46:01.098Z,21.83
2018-06-09T04:47:01.221Z,21.93
2018-06-09T04:48:01.410Z,21.79
2018-06-09T04:49:01.588Z,21.77
2018-06-09T04:50:01.777Z,21.58
2018-06-09T04:51:01.960Z,21.51
2018-06-09T04:52:02.147Z,21.33
2018-06-09T04:53:02.335Z,21.42
2018-06-09T04:54:02.515Z,21.25
2018-06-09T04:55:02.714Z,20.88
2018-06-09T04:56:02.898Z,20.67
2018-06-09T04:57:03.083Z,20.25
2018-06-09T04:58:03.268Z,20.16
2018-06-09T04:59:03.446Z,20.11
2018-06-09T05:00:03.627Z,20.13
2018-06-09T05:01:03.867Z,20.37
2018-06-09T05:02:04.003Z,20.47
2018-06-09T05:03:04.192Z,20.59
2018-06-09T05:04:04.380Z,20.56
2018-06-09T05:05:04.559Z,20.26
2018-06-09T05:06:04.748Z,20.03
2018-06-09T05:07:04.932Z,19.82
2018-06-09T05:08:05.119Z,19.92
2018-06-09T05:09:05.305Z,20.24
2018-06-09T05:10:05.488Z,20.55
2018-06-09T05:11:05.681Z,20.92
2018-06-09T05:12:05.863Z,21.35
2018-06-09T05:13:06.045Z,21.79
2018-06-09T05:14:06.226Z,22.48
2018-06-09T05:15:06.409Z,23.05
2018-06-09T05:16:06.602Z,23.28
2018-06-09T05:17:06.792Z,23.43
2018-06-09T05:18:07.210Z,23.62
2018-06-09T05:19:07.154Z,23.47
2018-06-09T05:20:07.344Z,23.21
2018-06-09T05:21:07.564Z,23.00
2018-06-09T05:22:07.711Z,22.68
2018-06-09T05:23:07.898Z,22.47
2018-06-09T05:24:08.082Z,22.35
2018-06-09T05:25:08.291Z,22.32
2018-06-09T05:26:08.449Z,22.08
2018-06-09T05:27:08.640Z,21.96
2018-06-09T05:28:08.940Z,21.93
2018-06-09T05:29:09.011Z,22.02
2018-06-09T05:30:09.206Z,22.47
2018-06-09T05:31:09.389Z,22.76
2018-06-09T05:32:09.591Z,22.63
2018-06-09T05:33:09.753Z,22.57
2018-06-09T05:34:10.105Z,22.57
2018-06-09T05:35:10.124Z,22.20
2018-06-09T05:36:10.317Z,22.28
2018-06-09T05:37:10.495Z,22.33
2018-06-09T05:38:10.692Z,22.44
2018-06-09T05:39:10.879Z,22.45
2018-06-09T05:40:11.059Z,22.43
2018-06-09T05:41:11.248Z,22.43
2018-06-09T05:42:11.456Z,22.45
2018-06-09T05:43:11.614Z,22.32
2018-06-09T05:44:11.794Z,22.10
2018-06-09T05:45:11.984Z,22.13
2018-06-09T05:46:12.173Z,22.22
2018-06-09T05:47:12.357Z,22.18
2018-06-09T05:48:12.542Z,22.22
2018-06-09T05:49:12.729Z,21.96
2018-06-09T05:50:12.917Z,21.95
2018-06-09T05:51:13.109Z,21.92
2018-06-09T05:52:13.295Z,21.89
2018-06-09T05:53:13.478Z,22.07
2018-06-09T05:54:13.668Z,22.06
2018-06-09T05:55:13.852Z,22.17
2018-06-09T05:56:14.045Z,22.08
2018-06-09T05:57:14.227Z,21.80
2018-06-09T05:58:14.413Z,21.95
2018-06-09T05:59:14.601Z,21.92
2018-06-09T06:00:14.786Z,21.89
2018-06-09T06:01:14.968Z,21.88
2018-06-09T06:02:15.164Z,21.99
2018-06-09T06:03:15.349Z,21.95
2018-06-09T06:04:15.533Z,22.44
2018-06-09T06:05:15.715Z,22.57
2018-06-09T06:06:15.904Z,22.88
2018-06-09T06:07:16.092Z,23.23
2018-06-09T06:08:16.307Z,23.63
2018-06-09T06:09:16.496Z,23.46
2018-06-09T06:10:16.679Z,23.80
2018-06-09T06:11:16.864Z,23.78
2018-06-09T06:12:17.053Z,23.93
2018-06-09T06:13:17.246Z,24.01
2018-06-09T06:14:17.431Z,24.58
2018-06-09T06:15:17.609Z,24.81
2018-06-09T06:16:17.797Z,25.35
2018-06-09T06:17:17.986Z,25.69
2018-06-09T06:18:18.184Z,26.09
2018-06-09T06:19:18.363Z,26.05
2018-06-09T06:20:18.541Z,26.07
2018-06-09T06:21:18.731Z,26.22
2018-06-09T06:22:18.928Z,26.33
2018-06-09T06:23:19.111Z,26.52
2018-06-09T06:24:19.303Z,26.75
2018-06-09T06:25:19.487Z,27.10
2018-06-09T06:26:19.676Z,26.99
2018-06-09T06:27:19.859Z,27.18
2018-06-09T06:28:20.046Z,27.39
2018-06-09T06:29:20.238Z,27.68
2018-06-09T06:30:20.435Z,27.85
2018-06-09T06:31:20.860Z,28.12
2018-06-09T06:32:20.809Z,28.35
2018-06-09T06:33:20.990Z,28.51
2018-06-09T06:34:21.181Z,28.64
2018-06-09T06:35:21.375Z,28.84
2018-06-09T06:36:21.555Z,28.72
2018-06-09T06:37:21.748Z,28.57
2018-06-09T06:38:21.939Z,28.15
2018-06-09T06:39:22.124Z,28.08
2018-06-09T06:40:22.320Z,28.11
2018-06-09T06:41:22.515Z,28.11
2018-06-09T06:42:22.700Z,27.74
2018-06-09T06:43:22.892Z,28.10
2018-06-09T06:44:23.085Z,28.20
2018-06-09T06:45:23.280Z,27.83
2018-06-09T06:46:23.464Z,28.07
2018-06-09T06:47:23.652Z,28.29
2018-06-09T06:48:23.843Z,28.57
2018-06-09T06:49:24.032Z,27.82
2018-06-09T06:50:24.295Z,28.19
2018-06-09T06:51:24.418Z,28.56
2018-06-09T06:52:24.610Z,28.64
2018-06-09T06:53:24.798Z,28.64
2018-06-09T06:54:24.989Z,28.49
2018-06-09T06:55:25.184Z,28.33
2018-06-09T06:56:25.382Z,27.47
2018-06-09T06:57:25.563Z,26.85
2018-06-09T06:58:25.749Z,27.15
2018-06-09T06:59:25.951Z,27.17
2018-06-09T07:00:26.167Z,27.12
2018-06-09T07:01:26.327Z,27.30
2018-06-09T07:02:26.514Z,27.51
2018-06-09T07:03:26.709Z,27.30
2018-06-09T07:04:26.897Z,26.99
2018-06-09T07:05:27.092Z,26.84
2018-06-09T07:07:27.471Z,27.02
2018-06-09T07:08:27.666Z,27.42
2018-06-09T07:09:27.860Z,27.85
2018-06-09T07:10:28.048Z,27.86
2018-06-09T07:11:28.283Z,28.17
2018-06-09T07:12:28.470Z,28.33
2018-06-09T07:13:28.660Z,28.29
2018-06-09T07:14:28.845Z,28.35
2018-06-09T07:15:29.041Z,28.75
2018-06-09T07:16:29.228Z,28.94
2018-06-09T07:17:29.417Z,29.31
2018-06-09T07:18:29.609Z,29.31
2018-06-09T07:19:29.799Z,29.81
2018-06-09T07:20:29.984Z,29.94
2018-06-09T07:21:30.171Z,30.00
2018-06-09T07:22:30.361Z,30.05
2018-06-09T07:23:30.565Z,30.02
2018-06-09T07:24:30.729Z,29.94
2018-06-09T07:25:30.917Z,30.09
2018-06-09T07:26:31.115Z,30.23
2018-06-09T07:27:31.302Z,30.00
2018-06-09T07:28:31.499Z,29.94
2018-06-09T07:29:31.704Z,29.79
2018-06-09T07:30:31.953Z,29.63
2018-06-09T07:31:32.077Z,29.34
2018-06-09T07:32:32.274Z,29.22
2018-06-09T07:33:32.441Z,29.14
2018-06-09T07:34:32.631Z,28.86
2018-06-09T07:35:32.816Z,28.45
2018-06-09T07:36:33.005Z,27.92
2018-06-09T07:37:33.213Z,26.66
2018-06-09T07:38:33.400Z,26.55
2018-06-09T07:39:33.602Z,26.63
2018-06-09T07:40:33.762Z,26.47
2018-06-09T07:41:33.953Z,26.26
2018-06-09T07:42:34.142Z,26.48
2018-06-09T07:43:34.332Z,26.63
2018-06-09T07:44:34.520Z,26.63
2018-06-09T07:45:34.717Z,26.93
2018-06-09T07:46:34.907Z,27.03
2018-06-09T07:47:35.093Z,27.40
2018-06-09T07:48:35.281Z,27.52
2018-06-09T07:49:35.471Z,27.75
2018-06-09T07:50:35.659Z,27.08
2018-06-09T07:51:35.847Z,27.52
2018-06-09T07:52:36.037Z,27.78
2018-06-09T07:53:36.228Z,28.19
2018-06-09T07:54:36.419Z,28.67
2018-06-09T07:55:36.606Z,29.14
2018-06-09T07:56:36.797Z,29.41
2018-06-09T07:57:36.982Z,29.59
2018-06-09T07:58:37.189Z,29.86
2018-06-09T07:59:37.454Z,29.98
2018-06-09T08:00:37.563Z,30.09
2018-06-09T08:01:37.758Z,30.44
2018-06-09T08:02:37.924Z,30.13
2018-06-09T08:03:38.116Z,30.13
2018-06-09T08:04:38.313Z,30.48
2018-06-09T08:05:38.507Z,30.73
2018-06-09T08:06:38.678Z,30.57
2018-06-09T08:07:38.859Z,30.54
2018-06-09T08:08:39.051Z,30.62
2018-06-09T08:09:39.228Z,30.72
2018-06-09T08:10:39.428Z,30.25
2018-06-09T08:11:39.581Z,29.72
2018-06-09T08:12:39.766Z,29.81
2018-06-09T08:13:39.959Z,29.93
2018-06-09T08:14:40.142Z,30.09
2018-06-09T08:15:40.330Z,30.47
2018-06-09T08:16:40.789Z,30.99
2018-06-09T08:17:40.710Z,31.37
2018-06-09T08:18:40.910Z,31.80
2018-06-09T08:19:41.088Z,32.09
2018-06-09T08:20:41.281Z,32.33
2018-06-09T08:21:41.475Z,31.80
2018-06-09T08:22:41.663Z,31.43
2018-06-09T08:23:41.853Z,31.42
2018-06-09T08:24:42.051Z,30.05
2018-06-09T08:25:42.250Z,30.66
2018-06-09T08:26:42.441Z,30.47
2018-06-09T08:27:42.636Z,30.83
2018-06-09T08:28:42.830Z,31.15
2018-06-09T08:29:43.018Z,30.70
2018-06-09T08:31:43.395Z,31.18
2018-06-09T08:32:43.591Z,31.37
2018-06-09T08:33:43.789Z,31.71
2018-06-09T08:34:43.972Z,31.89
2018-06-09T08:35:44.159Z,31.61
2018-06-09T08:36:44.352Z,31.47
2018-06-09T08:37:44.544Z,31.46
2018-06-09T08:38:44.729Z,31.92
2018-06-09T08:39:44.913Z,31.93
2018-06-09T08:40:45.106Z,32.04
2018-06-09T08:41:45.310Z,32.21
2018-06-09T08:42:45.492Z,32.65
2018-06-09T08:43:45.738Z,32.80
2018-06-09T08:44:45.907Z,33.14
2018-06-09T08:45:46.095Z,33.58
2018-06-09T08:46:46.289Z,33.68
2018-06-09T08:47:46.484Z,34.03
2018-06-09T08:48:46.683Z,33.96
2018-06-09T08:49:46.869Z,33.71
2018-06-09T08:50:47.074Z,33.58
2018-06-09T08:51:47.254Z,33.71
2018-06-09T08:52:47.452Z,33.73
2018-06-09T08:53:47.646Z,33.59
2018-06-09T08:54:47.834Z,33.58
2018-06-09T08:55:48.034Z,33.74
2018-06-09T08:56:48.238Z,33.71
2018-06-09T08:57:48.454Z,33.57
2018-06-09T08:58:48.633Z,33.30
2018-06-09T08:59:48.810Z,33.62
2018-06-09T09:00:49.003Z,33.65
2018-06-09T09:01:49.197Z,33.83
2018-06-09T09:02:49.398Z,34.03
2018-06-09T09:03:49.585Z,33.95
2018-06-09T09:04:49.784Z,33.84
2018-06-09T09:05:49.974Z,34.02
2018-06-09T09:06:50.161Z,34.06
2018-06-09T09:07:50.353Z,33.32
2018-06-09T09:08:50.539Z,33.14
2018-06-09T09:09:50.732Z,32.97
2018-06-09T09:10:50.919Z,33.24
2018-06-09T09:11:51.111Z,33.47
2018-06-09T09:12:51.304Z,33.62
2018-06-09T09:13:51.495Z,33.32
2018-06-09T09:14:51.699Z,32.80
2018-06-09T09:15:51.884Z,33.00
2018-06-09T09:16:52.070Z,33.08
2018-06-09T09:17:52.251Z,32.59
2018-06-09T09:18:52.447Z,32.52
2018-06-09T09:19:52.678Z,32.07
2018-06-09T09:20:53.119Z,32.27
2018-06-09T09:21:53.059Z,31.20
2018-06-09T09:22:53.263Z,30.99
2018-06-09T09:23:53.443Z,31.36
2018-06-09T09:24:53.641Z,31.31
2018-06-09T09:25:53.835Z,31.71
2018-06-09T09:26:54.028Z,31.76
2018-06-09T09:27:54.230Z,31.55
2018-06-09T09:28:54.412Z,31.99
2018-06-09T09:29:54.610Z,32.31
2018-06-09T09:30:54.793Z,32.21
2018-06-09T09:31:54.992Z,32.38
2018-06-09T09:32:55.186Z,32.36
2018-06-09T09:33:55.380Z,32.71
2018-06-09T09:34:55.570Z,32.68
2018-06-09T09:35:55.788Z,32.82
2018-06-09T09:36:55.978Z,32.89
2018-06-09T09:37:56.175Z,32.80
2018-06-09T09:38:56.379Z,32.74
2018-06-09T09:39:56.566Z,32.92
2018-06-09T09:40:56.754Z,32.90
2018-06-09T09:41:56.952Z,32.59
2018-06-09T09:42:57.142Z,32.30
2018-06-09T09:43:57.332Z,31.46
2018-06-09T09:44:57.528Z,31.33
2018-06-09T09:45:57.720Z,31.56
2018-06-09T09:46:57.906Z,31.77
2018-06-09T09:47:58.096Z,32.33
2018-06-09T09:48:58.291Z,32.55
2018-06-09T09:49:58.490Z,32.77
2018-06-09T09:50:58.675Z,32.33
2018-06-09T09:51:58.871Z,32.74
2018-06-09T09:52:59.068Z,33.04
2018-06-09T09:53:59.250Z,33.09
2018-06-09T09:54:59.492Z,33.49
2018-06-09T09:55:59.632Z,32.73
2018-06-09T09:56:59.830Z,32.00
2018-06-09T09:58:00.016Z,31.61
2018-06-09T09:59:00.200Z,32.04
2018-06-09T10:00:00.388Z,32.33
2018-06-09T10:01:00.588Z,32.48
2018-06-09T10:02:00.769Z,32.52
2018-06-09T10:03:00.968Z,32.58
2018-06-09T10:04:01.154Z,32.75
2018-06-09T10:05:01.350Z,32.29
2018-06-09T10:06:01.537Z,31.31
2018-06-09T10:07:01.743Z,31.42
2018-06-09T10:08:01.931Z,31.62
2018-06-09T10:09:02.104Z,30.99
2018-06-09T10:10:02.294Z,31.29
2018-06-09T10:11:02.502Z,31.55
2018-06-09T10:12:02.682Z,31.64
2018-06-09T10:13:02.878Z,32.11
2018-06-09T10:14:03.075Z,32.15
2018-06-09T10:15:03.271Z,32.27
2018-06-09T10:16:03.451Z,32.34
2018-06-09T10:17:03.641Z,32.58
2018-06-09T10:18:03.830Z,32.89
2018-06-09T10:19:04.020Z,33.19
2018-06-09T10:20:04.214Z,33.31
2018-06-09T10:21:04.403Z,33.37
2018-06-09T10:22:04.589Z,33.59
2018-06-09T10:23:04.783Z,33.79
2018-06-09T10:24:05.021Z,33.68
2018-06-09T10:25:05.205Z,33.89
2018-06-09T10:26:05.393Z,33.84
2018-06-09T10:27:05.591Z,33.74
2018-06-09T10:28:05.777Z,33.45
2018-06-09T10:29:05.968Z,33.22
2018-06-09T10:30:06.161Z,33.46
2018-06-09T10:31:06.354Z,33.47
2018-06-09T10:32:06.543Z,33.43
2018-06-09T10:33:06.739Z,33.49
2018-06-09T10:34:06.923Z,33.52
2018-06-09T10:35:07.119Z,33.40
2018-06-09T10:36:07.298Z,33.52
2018-06-09T10:37:07.538Z,33.27
2018-06-09T10:38:07.685Z,33.17
2018-06-09T10:39:07.871Z,33.07
2018-06-09T10:40:08.075Z,33.09
2018-06-09T10:41:08.262Z,33.22
2018-06-09T10:42:08.454Z,33.50
2018-06-09T10:43:08.651Z,33.98
2018-06-09T10:44:08.845Z,33.92
2018-06-09T10:45:09.028Z,34.05
2018-06-09T10:46:09.316Z,34.11
2018-06-09T10:47:09.505Z,34.08
2018-06-09T10:48:09.765Z,33.96
2018-06-09T10:49:09.844Z,33.77
2018-06-09T10:50:10.042Z,33.71
2018-06-09T10:51:10.225Z,34.10
2018-06-09T10:52:10.434Z,34.18
2018-06-09T10:53:10.584Z,33.83
2018-06-09T10:54:10.842Z,33.61
2018-06-09T10:55:10.897Z,33.23
2018-06-09T10:56:11.100Z,32.70
2018-06-09T10:57:11.264Z,32.67
2018-06-09T10:58:11.455Z,32.71
2018-06-09T10:59:11.667Z,32.77
2018-06-09T11:00:11.851Z,32.87
2018-06-09T11:01:12.026Z,32.97
2018-06-09T11:02:12.251Z,32.93
2018-06-09T11:03:12.469Z,33.00
2018-06-09T11:04:12.695Z,33.30
2018-06-09T11:05:12.885Z,33.11
2018-06-09T11:06:13.064Z,32.86
2018-06-09T11:07:13.284Z,33.02
2018-06-09T11:08:13.444Z,33.01
2018-06-09T11:09:13.641Z,32.82
2018-06-09T11:10:13.826Z,32.85
2018-06-09T11:11:14.026Z,32.95
2018-06-09T11:12:14.199Z,32.97
2018-06-09T11:13:14.377Z,33.46
2018-06-09T11:14:14.575Z,33.69
2018-06-09T11:15:14.755Z,33.67
2018-06-09T11:16:14.941Z,32.86
2018-06-09T11:17:15.136Z,32.68
2018-06-09T11:18:15.372Z,32.53
2018-06-09T11:19:15.522Z,32.38
2018-06-09T11:20:15.707Z,32.74
2018-06-09T11:21:15.899Z,33.23
2018-06-09T11:22:16.086Z,33.47
2018-06-09T11:23:16.296Z,33.43
2018-06-09T11:24:16.467Z,33.49
2018-06-09T11:25:16.663Z,33.53
2018-06-09T11:26:16.853Z,33.59
2018-06-09T11:27:19.106Z,33.57
2018-06-09T11:28:20.494Z,33.52
2018-06-09T11:29:17.379Z,33.57
2018-06-09T11:30:17.570Z,33.74
2018-06-09T11:31:17.748Z,33.80
2018-06-09T11:32:17.943Z,33.90
2018-06-09T11:33:18.166Z,33.83
2018-06-09T11:34:18.338Z,33.37
2018-06-09T11:35:18.885Z,32.67
2018-06-09T11:36:18.764Z,32.71
2018-06-09T11:37:18.949Z,32.97
2018-06-09T11:38:19.187Z,33.08
2018-06-09T11:39:19.406Z,33.04
2018-06-09T11:40:19.687Z,33.22
2018-06-09T11:41:19.805Z,33.47
2018-06-09T11:42:20.076Z,33.23
2018-06-09T11:43:20.154Z,33.27
2018-06-09T11:44:20.362Z,33.49
2018-06-09T11:45:20.670Z,33.39
2018-06-09T11:46:20.798Z,33.49
2018-06-09T11:47:20.894Z,33.15
2018-06-09T11:48:21.089Z,33.42
2018-06-09T11:49:21.254Z,33.40
2018-06-09T11:50:21.442Z,33.34
2018-06-09T11:51:21.630Z,33.61
2018-06-09T11:52:21.798Z,33.73
2018-06-09T11:53:21.979Z,33.73
2018-06-09T11:54:22.151Z,33.68
2018-06-09T11:55:22.370Z,33.84
2018-06-09T11:56:22.572Z,33.84
2018-06-09T11:57:22.737Z,34.03
2018-06-09T11:58:22.929Z,33.98
2018-06-09T11:59:23.127Z,34.11
2018-06-09T12:00:23.313Z,33.89
2018-06-09T12:01:23.489Z,33.77
2018-06-09T12:02:23.669Z,33.77
2018-06-09T12:03:23.857Z,34.03
2018-06-09T12:04:24.046Z,34.36
2018-06-09T12:05:24.241Z,33.47
2018-06-09T12:06:24.425Z,33.00
2018-06-09T12:07:24.598Z,33.00
2018-06-09T12:08:24.802Z,33.19
2018-06-09T12:09:24.976Z,33.11
2018-06-09T12:10:25.426Z,33.31
2018-06-09T12:11:25.495Z,33.32
2018-06-09T12:12:25.570Z,32.87
2018-06-09T12:13:25.756Z,33.08
2018-06-09T12:14:25.955Z,32.23
2018-06-09T12:15:26.123Z,32.26
2018-06-09T12:16:26.312Z,32.31
2018-06-09T12:17:26.492Z,32.04
2018-06-09T12:18:26.667Z,31.81
2018-06-09T12:19:26.839Z,31.71
2018-06-09T12:20:27.026Z,32.18
2018-06-09T12:21:27.192Z,32.38
2018-06-09T12:22:27.389Z,32.65
2018-06-09T12:23:27.564Z,32.87
2018-06-09T12:24:27.754Z,33.12
2018-06-09T12:25:27.912Z,33.36
2018-06-09T12:26:28.121Z,33.64
2018-06-09T12:27:28.285Z,33.81
2018-06-09T12:28:28.449Z,33.94
2018-06-09T12:29:28.645Z,33.96
2018-06-09T12:30:28.813Z,33.55
2018-06-09T12:31:28.990Z,33.77
2018-06-09T12:32:29.233Z,33.55
2018-06-09T12:33:29.360Z,33.68
2018-06-09T12:34:29.539Z,33.59
2018-06-09T12:35:29.731Z,33.58
2018-06-09T12:36:29.910Z,33.58
2018-06-09T12:37:30.100Z,33.58
2018-06-09T12:38:30.287Z,33.28
2018-06-09T12:39:30.469Z,33.30
2018-06-09T12:40:30.635Z,33.22
2018-06-09T12:41:30.833Z,33.23
2018-06-09T12:42:31.037Z,33.01
2018-06-09T12:43:31.208Z,32.85
2018-06-09T12:44:31.406Z,33.04
2018-06-09T12:45:31.590Z,32.85
2018-06-09T12:46:31.781Z,32.93
2018-06-09T12:47:31.954Z,32.95
2018-06-09T12:48:32.230Z,33.07
2018-06-09T12:49:32.375Z,33.08
2018-06-09T12:50:32.572Z,33.27
2018-06-09T12:51:32.791Z,33.46
2018-06-09T12:52:32.904Z,33.50
2018-06-09T12:53:33.080Z,33.58
2018-06-09T12:54:33.269Z,33.32
2018-06-09T12:55:33.457Z,33.02
2018-06-09T12:56:33.612Z,32.96
2018-06-09T12:57:33.786Z,33.17
2018-06-09T12:58:33.964Z,33.30
2018-06-09T12:59:34.153Z,32.01